createdAt,value
2022-11-20T00:04:39.941Z,79.82
2022-11-20T00:14:41.703Z,80.30
2022-11-20T00:24:43.575Z,80.96
2022-11-20T00:34:45.305Z,81.98
2022-11-20T00:44:47.112Z,82.50
2022-11-20T00:54:48.844Z,82.69
2022-11-20T01:04:50.604Z,82.56
2022-11-20T01:14:52.354Z,82.04
2022-11-20T01:24:54.078Z,81.65
2022-11-20T01:34:55.792Z,81.55
2022-11-20T01:45:00.643Z,81.19
2022-11-20T01:55:08.044Z,81.09
2022-11-20T02:05:25.460Z,81.56
2022-11-20T02:15:30.320Z,81.70
2022-11-20T02:25:33.474Z,81.84
2022-11-20T02:35:35.146Z,82.40
2022-11-20T02:45:36.897Z,82.99
2022-11-20T02:55:38.665Z,83.45
2022-11-20T03:05:40.643Z,83.46
2022-11-20T03:15:42.372Z,83.20
2022-11-20T03:25:44.009Z,82.95
2022-11-20T03:35:45.760Z,82.94
2022-11-20T03:45:47.421Z,83.39
2022-11-20T03:55:52.270Z,84.18
2022-11-20T04:05:53.967Z,84.91
2022-11-20T04:15:57.553Z,85.83
2022-11-20T04:26:07.057Z,86.48
2022-11-20T04:36:13.306Z,86.57
2022-11-20T04:46:15.291Z,85.96
2022-11-20T04:56:17.467Z,85.88
2022-11-20T05:06:21.127Z,86.41
2022-11-20T05:16:23.775Z,86.60
2022-11-20T05:26:26.043Z,87.19
2022-11-20T05:36:27.778Z,87.39
2022-11-20T05:46:29.807Z,87.81
2022-11-20T05:56:33.040Z,87.72
2022-11-20T06:06:34.802Z,87.21
2022-11-20T06:16:36.699Z,87.04
2022-11-20T06:26:53.857Z,87.12
2022-11-20T06:36:55.477Z,87.41
2022-11-20T06:46:57.178Z,88.11
2022-11-20T06:56:58.849Z,88.56
2022-11-20T07:07:00.670Z,88.55
2022-11-20T07:17:02.365Z,87.92
2022-11-20T07:27:04.835Z,88.00
2022-11-20T07:37:18.753Z,87.68
2022-11-20T07:47:38.753Z,88.15
2022-11-20T07:57:40.526Z,88.31
2022-11-20T08:07:43.468Z,88.12
2022-11-20T08:28:34.155Z,87.77
2022-11-20T08:38:36.244Z,87.56
2022-11-20T08:48:37.999Z,86.47
2022-11-20T08:59:15.398Z,85.48
2022-11-20T09:09:06.909Z,84.96
2022-11-20T09:29:45.741Z,85.18
2022-11-20T09:40:46.090Z,85.39
2022-11-20T09:51:14.543Z,84.60
2022-11-20T10:01:56.262Z,83.71
2022-11-20T10:12:32.211Z,83.81
2022-11-20T10:22:43.217Z,84.34
2022-11-20T10:33:21.949Z,84.10
2022-11-20T10:43:33.639Z,83.52
2022-11-20T10:54:15.628Z,83.69
2022-11-20T11:04:55.155Z,83.01
2022-11-20T11:14:58.004Z,82.29
2022-11-20T11:25:00.403Z,82.12
2022-11-20T11:35:03.736Z,81.78
2022-11-20T11:45:06.750Z,81.69
2022-11-20T11:55:11.913Z,80.94
2022-11-20T12:05:22.876Z,80.41
2022-11-20T12:15:31.918Z,80.04
2022-11-20T12:25:35.896Z,79.63
2022-11-20T12:35:56.561Z,79.88
2022-11-20T12:46:18.495Z,78.95
2022-11-20T12:56:20.243Z,78.61
2022-11-20T13:06:22.055Z,78.51
2022-11-20T13:16:46.458Z,78.83
2022-11-20T13:26:48.150Z,79.22
2022-11-20T13:36:54.312Z,78.91
2022-11-20T13:46:56.213Z,79.10
2022-11-20T13:57:16.532Z,78.89
2022-11-20T14:07:19.839Z,78.90
2022-11-20T14:17:21.658Z,79.07
2022-11-20T14:27:23.390Z,79.80
2022-11-20T14:37:33.873Z,80.66
2022-11-20T14:47:35.724Z,81.08
2022-11-20T14:57:37.465Z,81.86
2022-11-20T15:07:43.946Z,82.69
2022-11-20T15:17:45.719Z,84.84
2022-11-20T15:27:50.792Z,85.53
2022-11-20T15:37:52.771Z,86.15
2022-11-20T15:47:54.563Z,86.78
2022-11-20T15:57:56.289Z,87.35
2022-11-20T16:07:58.388Z,88.27
2022-11-20T16:18:00.284Z,89.28
2022-11-20T16:28:02.224Z,90.27
2022-11-20T16:38:04.115Z,90.13
2022-11-20T16:48:06.088Z,90.04
2022-11-20T17:08:35.160Z,91.52
2022-11-20T17:18:37.174Z,92.51
2022-11-20T17:28:39.316Z,92.79
2022-11-20T17:38:41.249Z,92.28
2022-11-20T17:48:44.194Z,92.21
2022-11-20T17:58:46.282Z,93.32
2022-11-20T18:08:48.352Z,94.03
2022-11-20T18:18:52.806Z,94.27
2022-11-20T18:28:54.569Z,94.92
2022-11-20T18:38:57.541Z,95.28
2022-11-20T18:48:59.256Z,94.70
2022-11-20T18:59:01.815Z,93.82
2022-11-20T19:09:04.315Z,93.30
2022-11-20T19:19:06.875Z,93.35
2022-11-20T19:29:13.626Z,94.46
2022-11-20T19:39:15.454Z,95.79
2022-11-20T19:49:17.329Z,96.69
2022-11-20T19:59:19.036Z,97.02
2022-11-20T20:09:23.140Z,97.59
2022-11-20T20:19:25.500Z,97.27
2022-11-20T20:41:30.643Z,97.69
2022-11-20T20:51:33.908Z,97.89
2022-11-20T21:01:37.104Z,97.83
2022-11-20T21:11:41.054Z,96.56
2022-11-20T21:21:59.402Z,96.49
2022-11-20T21:32:02.526Z,96.53
2022-11-20T21:42:05.783Z,96.61
2022-11-20T21:52:09.089Z,96.90
2022-11-20T22:02:12.973Z,96.16
2022-11-20T22:12:16.522Z,95.92
2022-11-20T22:22:19.761Z,95.99
2022-11-20T22:32:22.903Z,96.17
2022-11-20T22:42:25.927Z,96.11
2022-11-20T22:52:29.009Z,95.51
2022-11-20T23:02:32.097Z,94.54
2022-11-20T23:12:35.330Z,94.47
2022-11-20T23:22:38.468Z,94.56
2022-11-20T23:32:41.580Z,95.08
2022-11-20T23:43:04.751Z,95.96
2022-11-20T23:53:08.341Z,96.02
